Time;durP1;ratioP1;P1;durP2;ratioP2;P2;SDS_P1;SDS_P2;PMS_P1;PMS_P2;Temp;Humidity;BMP_temperature;BMP_pressure;BME280_temperature;BME280_humidity;BME280_pressure;Samples;Min_cycle;Max_cycle;Signal;HPM_P1;HPM_P2
2024/01/19 00:01:47;;;;;;;18.55;11.07;;;-0.50;18.80;;;;;;4953425;28;20217;-70
2024/01/19 00:04:13;;;;;;;20.83;12.17;;;-0.50;17.50;;;;;;4953441;28;20189;-70
2024/01/19 00:06:41;;;;;;;16.93;10.57;;;-0.60;17.70;;;;;;4953056;28;20206;-70
2024/01/19 00:09:07;;;;;;;17.13;10.40;;;-0.60;17.70;;;;;;4953417;28;20667;-70
2024/01/19 00:11:33;;;;;;;18.50;11.35;;;-0.60;18.20;;;;;;4953051;28;20673;-70
2024/01/19 00:13:58;;;;;;;22.93;13.37;;;-0.60;18.90;;;;;;4954209;28;20182;-71
2024/01/19 00:16:24;;;;;;;31.63;15.57;;;-0.60;18.90;;;;;;4955060;28;20182;-70
2024/01/19 00:18:51;;;;;;;25.93;16.67;;;-0.60;20.90;;;;;;4954145;28;20240;-70
2024/01/19 00:21:16;;;;;;;27.23;14.70;;;-0.60;21.40;;;;;;4954075;28;20268;-70
2024/01/19 00:23:42;;;;;;;26.00;16.70;;;-0.60;21.90;;;;;;4953164;28;20269;-70
2024/01/19 00:26:07;;;;;;;28.80;15.10;;;-0.70;23.10;;;;;;4952680;28;20224;-69
2024/01/19 00:28:33;;;;;;;26.73;15.30;;;-0.70;24.00;;;;;;4954093;28;20177;-70
2024/01/19 00:30:58;;;;;;;24.73;15.27;;;-0.70;23.40;;;;;;4952842;28;20205;-71
2024/01/19 00:33:24;;;;;;;29.03;17.67;;;-0.70;23.60;;;;;;4953846;28;20669;-70
2024/01/19 00:35:50;;;;;;;24.47;14.07;;;-0.70;23.20;;;;;;4952658;28;20178;-70
2024/01/19 00:38:15;;;;;;;25.87;15.57;;;-0.70;23.90;;;;;;4952892;28;20712;-70
2024/01/19 00:40:41;;;;;;;23.83;16.53;;;-0.70;24.70;;;;;;4968902;28;20289;-70
2024/01/19 00:43:06;;;;;;;26.90;15.93;;;-0.70;24.30;;;;;;4952451;28;20182;-69
2024/01/19 00:45:32;;;;;;;24.93;14.90;;;-0.70;24.70;;;;;;4953767;28;20554;-70
2024/01/19 00:47:58;;;;;;;22.33;14.13;;;-0.70;24.30;;;;;;4953895;28;20284;-70
2024/01/19 00:50:23;;;;;;;23.07;15.60;;;-0.60;24.80;;;;;;4968616;28;20233;-70
2024/01/19 00:52:49;;;;;;;23.80;13.07;;;-0.60;24.40;;;;;;4968665;28;20213;-70
2024/01/19 00:55:14;;;;;;;20.07;15.43;;;-0.60;23.00;;;;;;4952402;28;20225;-70
2024/01/19 00:57:40;;;;;;;21.90;15.47;;;-0.60;23.10;;;;;;4968765;28;20182;-70
2024/01/19 01:00:06;;;;;;;28.33;16.63;;;-0.70;23.20;;;;;;4953782;28;20190;-71
2024/01/19 01:02:32;;;;;;;26.33;15.60;;;-0.70;22.80;;;;;;4975521;23;20257;-69
2024/01/19 01:04:58;;;;;;;22.00;15.17;;;-0.60;23.40;;;;;;4953009;29;20170;-67
2024/01/19 01:07:24;;;;;;;23.52;16.38;;;-0.60;24.60;;;;;;4953382;29;20280;-68
2024/01/19 01:09:49;;;;;;;26.03;14.90;;;-0.50;24.20;;;;;;4953249;29;20546;-68
2024/01/19 01:12:17;;;;;;;26.57;15.10;;;-0.40;24.00;;;;;;4953518;28;20561;-68
2024/01/19 01:14:43;;;;;;;25.95;16.73;;;-0.40;22.70;;;;;;4953144;28;20173;-68
2024/01/19 01:17:08;;;;;;;24.40;16.03;;;-0.40;22.70;;;;;;4953277;28;20264;-68
2024/01/19 01:19:34;;;;;;;26.83;16.03;;;-0.40;22.40;;;;;;4951780;28;20193;-68
2024/01/19 01:21:59;;;;;;;28.47;17.50;;;-0.40;21.20;;;;;;4953157;28;20212;-69
2024/01/19 01:24:25;;;;;;;31.93;18.80;;;-0.40;22.90;;;;;;4952927;28;20178;-69
2024/01/19 01:26:50;;;;;;;29.50;18.63;;;-0.30;22.30;;;;;;4953175;28;20668;-69
2024/01/19 01:29:16;;;;;;;20.87;15.90;;;-0.30;22.30;;;;;;4953087;28;20185;-67
2024/01/19 01:31:42;;;;;;;23.10;14.70;;;-0.30;22.70;;;;;;4953116;28;20261;-68
2024/01/19 01:34:08;;;;;;;28.63;18.43;;;-0.40;23.00;;;;;;4953010;28;20182;-68
2024/01/19 01:36:34;;;;;;;27.25;15.77;;;-0.40;23.70;;;;;;4956452;28;20272;-67
2024/01/19 01:38:59;;;;;;;31.33;16.77;;;-0.30;24.00;;;;;;4956881;28;20657;-68
2024/01/19 01:41:25;;;;;;;28.93;16.33;;;-0.20;23.10;;;;;;4956793;28;20238;-69
2024/01/19 01:43:50;;;;;;;27.73;17.30;;;-0.20;22.00;;;;;;4956527;28;20272;-69
2024/01/19 01:46:16;;;;;;;30.47;17.63;;;-0.20;22.50;;;;;;4956813;28;20202;-67
2024/01/19 01:48:42;;;;;;;30.00;15.90;;;-0.30;22.00;;;;;;4956742;28;20666;-68
2024/01/19 01:51:08;;;;;;;28.63;16.77;;;-0.40;23.10;;;;;;4956620;28;20209;-67
2024/01/19 01:53:34;;;;;;;28.90;18.02;;;-0.30;22.80;;;;;;4956593;28;20669;-67
2024/01/19 01:56:00;;;;;;;23.00;16.83;;;-0.40;23.50;;;;;;4956687;28;20178;-67
2024/01/19 01:58:26;;;;;;;27.60;17.67;;;-0.40;22.90;;;;;;4956393;28;20170;-68
2024/01/19 02:00:52;;;;;;;27.47;17.00;;;-0.50;24.00;;;;;;4956380;28;20202;-68
2024/01/19 02:03:18;;;;;;;27.38;17.25;;;-0.50;24.00;;;;;;4956353;28;20501;-69
2024/01/19 02:05:43;;;;;;;24.63;15.97;;;-0.50;25.40;;;;;;4956669;28;20178;-69
2024/01/19 02:08:09;;;;;;;27.17;14.37;;;-0.40;24.30;;;;;;4956283;28;20297;-69
2024/01/19 02:10:35;;;;;;;22.07;16.00;;;-0.40;24.90;;;;;;4956427;28;20542;-69
2024/01/19 02:13:00;;;;;;;24.90;18.57;;;-0.30;23.50;;;;;;4956398;28;20609;-69
2024/01/19 02:15:26;;;;;;;20.10;13.80;;;-0.20;22.60;;;;;;4955210;28;20196;-69
2024/01/19 02:17:53;;;;;;;19.60;13.70;;;-0.20;21.00;;;;;;4956495;28;20174;-69
2024/01/19 02:20:19;;;;;;;20.63;13.57;;;-0.30;19.80;;;;;;4956485;28;20554;-69
2024/01/19 02:22:46;;;;;;;24.13;14.75;;;-0.40;20.80;;;;;;4956103;28;20622;-69
2024/01/19 02:25:13;;;;;;;24.98;15.30;;;-0.30;21.30;;;;;;4956164;28;20171;-69
2024/01/19 02:27:38;;;;;;;23.80;15.55;;;-0.30;20.90;;;;;;4955874;28;20290;-68
2024/01/19 02:30:08;;;;;;;27.10;15.57;;;-0.30;20.90;;;;;;4954793;29;20275;-69
2024/01/19 02:32:34;;;;;;;24.23;16.90;;;-0.30;19.90;;;;;;4955687;28;20681;-69
2024/01/19 02:35:00;;;;;;;21.77;15.27;;;-0.30;19.70;;;;;;4955716;28;20182;-68
2024/01/19 02:37:25;;;;;;;26.23;16.80;;;-0.40;20.30;;;;;;4955794;28;20257;-68
2024/01/19 02:39:51;;;;;;;24.63;16.60;;;-0.40;21.50;;;;;;4955850;28;20652;-68
2024/01/19 02:42:17;;;;;;;20.80;14.00;;;-0.30;21.40;;;;;;4955696;28;20290;-68
2024/01/19 02:44:42;;;;;;;22.67;15.33;;;-0.30;22.20;;;;;;4954230;28;20186;-68
2024/01/19 02:47:08;;;;;;;20.40;14.87;;;-0.30;20.90;;;;;;4954634;28;20213;-68
2024/01/19 02:49:33;;;;;;;22.53;13.10;;;-0.40;20.80;;;;;;4955586;28;20244;-68
2024/01/19 02:51:59;;;;;;;24.60;15.60;;;-0.30;20.90;;;;;;4955557;28;20334;-68
2024/01/19 02:54:24;;;;;;;27.20;15.10;;;-0.40;20.60;;;;;;4955456;28;20204;-68
2024/01/19 02:56:50;;;;;;;24.30;14.70;;;-0.50;21.90;;;;;;4955548;28;20264;-68
2024/01/19 02:59:16;;;;;;;31.80;14.90;;;-0.40;21.20;;;;;;4953977;28;20190;-68
2024/01/19 03:01:41;;;;;;;23.10;14.70;;;-0.40;21.40;;;;;;4955165;28;20741;-69
2024/01/19 03:04:07;;;;;;;21.73;14.63;;;-0.40;20.80;;;;;;4955211;28;20189;-68
2024/01/19 03:06:32;;;;;;;22.70;14.90;;;-0.50;22.10;;;;;;4955208;28;20233;-68
2024/01/19 03:08:58;;;;;;;22.73;16.27;;;-0.40;20.90;;;;;;4953928;28;20198;-68
2024/01/19 03:11:23;;;;;;;19.40;13.13;;;-0.40;21.30;;;;;;4955114;28;20430;-68
2024/01/19 03:13:51;;;;;;;20.20;12.70;;;-0.30;21.60;;;;;;4954964;28;20178;-68
2024/01/19 03:16:17;;;;;;;19.40;13.30;;;-0.40;20.80;;;;;;4953912;28;20233;-69
2024/01/19 03:18:42;;;;;;;22.53;14.93;;;-0.50;21.00;;;;;;4955205;28;20178;-69
2024/01/19 03:21:08;;;;;;;29.33;14.60;;;-0.40;21.00;;;;;;4954961;28;20285;-68
2024/01/19 03:23:34;;;;;;;23.95;14.27;;;-0.40;21.50;;;;;;4954994;28;20186;-68
2024/01/19 03:26:00;;;;;;;26.57;15.17;;;-0.50;21.70;;;;;;4955171;28;20189;-68
2024/01/19 03:28:25;;;;;;;20.43;15.07;;;-0.50;22.60;;;;;;4970213;28;20185;-69
2024/01/19 03:30:51;;;;;;;28.00;16.37;;;-0.40;23.50;;;;;;4955060;28;20697;-69
2024/01/19 03:33:16;;;;;;;27.13;16.50;;;-0.40;21.60;;;;;;4955160;28;20193;-68
2024/01/19 03:35:42;;;;;;;22.77;15.40;;;-0.40;20.80;;;;;;4955069;28;20174;-68
2024/01/19 03:38:08;;;;;;;23.60;15.43;;;-0.40;20.80;;;;;;4954802;28;20189;-68
2024/01/19 03:40:33;;;;;;;23.13;16.00;;;-0.50;20.70;;;;;;4954694;28;20186;-68
2024/01/19 03:42:59;;;;;;;22.60;16.97;;;-0.40;21.50;;;;;;4954848;28;20178;-68
2024/01/19 03:45:25;;;;;;;20.80;12.50;;;-0.40;20.80;;;;;;4954632;28;20174;-69
2024/01/19 03:47:50;;;;;;;23.07;14.90;;;-0.40;20.20;;;;;;4954513;28;20209;-69
2024/01/19 03:50:16;;;;;;;20.57;15.63;;;-0.50;19.90;;;;;;4954625;28;20178;-69
2024/01/19 03:52:43;;;;;;;15.23;12.23;;;-0.40;19.90;;;;;;4954506;28;20221;-69
2024/01/19 03:55:09;;;;;;;18.20;13.18;;;-0.50;20.70;;;;;;4954320;28;20170;-68
2024/01/19 03:57:34;;;;;;;19.30;12.50;;;-0.50;20.20;;;;;;4954243;28;20189;-68
2024/01/19 04:00:00;;;;;;;21.53;14.17;;;-0.60;19.90;;;;;;4953093;28;20189;-68
2024/01/19 04:02:25;;;;;;;15.90;11.33;;;-0.60;20.10;;;;;;4954818;28;20308;-69
2024/01/19 04:04:51;;;;;;;19.70;12.40;;;-0.60;20.70;;;;;;4954647;28;20189;-69
2024/01/19 04:07:17;;;;;;;22.73;16.70;;;-0.60;20.60;;;;;;4954252;28;20232;-68
2024/01/19 04:09:42;;;;;;;19.60;13.70;;;-0.60;20.70;;;;;;4954280;28;20244;-68
2024/01/19 04:12:17;;;;;;;24.63;15.43;;;-0.70;20.30;;;;;;4954455;28;20209;-69
2024/01/19 04:14:44;;;;;;;25.55;14.40;;;-0.80;21.30;;;;;;4954135;28;20200;-69
2024/01/19 04:17:12;;;;;;;18.40;12.13;;;-0.90;22.30;;;;;;4954697;28;20256;-69
2024/01/19 04:19:39;;;;;;;22.05;13.70;;;-1.00;22.20;;;;;;4954064;28;20186;-69
2024/01/19 04:22:05;;;;;;;19.40;13.07;;;-1.00;22.30;;;;;;4954146;28;20284;-69
2024/01/19 04:24:31;;;;;;;25.13;14.18;;;-1.00;22.70;;;;;;4952810;28;20201;-68
2024/01/19 04:26:56;;;;;;;24.73;15.80;;;-1.10;22.00;;;;;;4953888;28;20217;-68
2024/01/19 04:29:22;;;;;;;19.07;14.23;;;-1.10;25.00;;;;;;4953928;28;20677;-68
2024/01/19 04:31:48;;;;;;;23.80;13.13;;;-1.00;24.50;;;;;;4953897;28;20656;-67
2024/01/19 04:34:13;;;;;;;23.03;14.90;;;-1.00;25.60;;;;;;4952237;28;20174;-68
2024/01/19 04:36:39;;;;;;;27.57;16.87;;;-0.90;25.30;;;;;;4953953;28;20196;-68
2024/01/19 04:39:04;;;;;;;24.20;16.13;;;-0.90;24.60;;;;;;4953590;28;20688;-68
2024/01/19 04:41:31;;;;;;;22.20;13.90;;;-0.90;24.60;;;;;;4953564;28;20206;-68
2024/01/19 04:43:56;;;;;;;25.30;14.30;;;-0.80;25.90;;;;;;4953557;28;20182;-68
2024/01/19 04:46:22;;;;;;;22.13;14.67;;;-0.70;24.70;;;;;;4953689;28;20719;-68
2024/01/19 04:48:47;;;;;;;22.70;13.87;;;-0.70;24.70;;;;;;4952289;28;20582;-68
2024/01/19 04:51:13;;;;;;;24.37;13.83;;;-0.60;24.80;;;;;;4952412;28;20712;-68
2024/01/19 04:53:39;;;;;;;23.00;13.60;;;-0.60;23.60;;;;;;4953286;28;20176;-68
2024/01/19 04:56:08;;;;;;;22.88;14.30;;;-0.50;22.50;;;;;;4953414;28;20174;-68
2024/01/19 04:58:35;;;;;;;21.75;15.15;;;-0.50;22.40;;;;;;4953664;28;20715;-68
2024/01/19 05:01:01;;;;;;;25.67;14.18;;;-0.40;21.60;;;;;;4968069;28;20249;-68
2024/01/19 05:03:27;;;;;;;20.23;14.75;;;-0.40;22.70;;;;;;4953404;28;20586;-68
2024/01/19 05:05:52;;;;;;;22.03;14.50;;;-0.50;22.80;;;;;;4952180;28;20393;-68
2024/01/19 05:08:18;;;;;;;19.60;13.97;;;-0.50;22.90;;;;;;4953321;28;20288;-67
2024/01/19 05:10:43;;;;;;;22.30;12.93;;;-0.50;22.30;;;;;;4952894;28;20228;-68
2024/01/19 05:13:09;;;;;;;22.30;15.00;;;-0.50;21.90;;;;;;4953273;28;20174;-68
2024/01/19 05:15:35;;;;;;;18.80;11.90;;;-0.60;22.30;;;;;;4953587;28;20654;-67
2024/01/19 05:18:01;;;;;;;17.17;11.97;;;-0.50;22.20;;;;;;4952060;28;20650;-68
2024/01/19 05:20:27;;;;;;;19.42;12.85;;;-0.40;21.60;;;;;;4953210;28;20224;-68
2024/01/19 05:22:53;;;;;;;22.92;16.95;;;-0.40;21.00;;;;;;4952074;28;20182;-68
2024/01/19 05:25:18;;;;;;;27.43;14.83;;;-0.40;20.80;;;;;;4952920;28;20228;-69
2024/01/19 05:27:45;;;;;;;29.43;16.27;;;-0.40;21.20;;;;;;4951847;28;20209;-69
2024/01/19 05:30:13;;;;;;;17.50;13.65;;;-0.30;21.40;;;;;;4953360;28;20516;-69
2024/01/19 05:32:39;;;;;;;20.50;14.50;;;-0.30;20.30;;;;;;4952957;28;20201;-68
2024/01/19 05:35:05;;;;;;;22.60;15.33;;;-0.30;19.90;;;;;;4953027;28;20185;-68
2024/01/19 05:37:30;;;;;;;24.27;13.40;;;-0.40;20.40;;;;;;4951718;28;20432;-68
2024/01/19 05:39:56;;;;;;;20.20;15.43;;;-0.40;21.00;;;;;;4951932;28;20436;-68
2024/01/19 05:42:22;;;;;;;22.30;13.70;;;-0.40;21.90;;;;;;4953086;28;20602;-69
2024/01/19 05:44:47;;;;;;;24.08;16.30;;;-0.30;21.50;;;;;;4952844;28;20178;-68
2024/01/19 05:47:13;;;;;;;20.77;13.60;;;-0.30;21.10;;;;;;4953141;28;20462;-69
2024/01/19 05:49:40;;;;;;;28.17;15.33;;;-0.30;21.50;;;;;;4953035;28;20539;-69
2024/01/19 05:52:06;;;;;;;24.48;15.80;;;-0.20;20.90;;;;;;4953073;28;20208;-69
2024/01/19 05:54:36;;;;;;;29.07;15.43;;;-0.20;21.50;;;;;;4953046;28;20249;-68
2024/01/19 05:57:02;;;;;;;20.65;13.48;;;-0.20;20.90;;;;;;4953482;28;20449;-69
2024/01/19 05:59:28;;;;;;;27.88;13.57;;;-0.30;19.30;;;;;;4953242;28;20204;-68
2024/01/19 06:01:54;;;;;;;20.33;13.87;;;-0.30;18.70;;;;;;4953553;28;20247;-69
2024/01/19 06:04:19;;;;;;;19.03;12.70;;;-0.40;19.70;;;;;;4965560;28;20436;-69
2024/01/19 06:06:45;;;;;;;17.77;12.97;;;-0.40;20.60;;;;;;4967891;28;20216;-69
2024/01/19 06:09:10;;;;;;;26.07;14.77;;;-0.50;18.80;;;;;;4965860;28;20193;-69
2024/01/19 06:11:36;;;;;;;27.67;14.53;;;-0.50;19.10;;;;;;4967748;28;20213;-69
2024/01/19 06:14:02;;;;;;;22.27;14.70;;;-0.60;19.20;;;;;;4957083;28;20451;-69
2024/01/19 06:16:29;;;;;;;24.73;15.13;;;-0.50;19.80;;;;;;4954076;28;20721;-68
2024/01/19 06:18:54;;;;;;;23.75;14.80;;;-0.50;20.10;;;;;;4953181;28;20681;-69
2024/01/19 06:21:20;;;;;;;24.67;15.90;;;-0.40;20.30;;;;;;4953361;28;20202;-68
2024/01/19 06:23:45;;;;;;;29.30;16.63;;;-0.50;20.80;;;;;;4957157;28;20190;-69
2024/01/19 06:26:12;;;;;;;29.03;15.57;;;-0.40;21.40;;;;;;4956574;28;20209;-69
2024/01/19 06:28:38;;;;;;;28.15;16.10;;;-0.30;20.80;;;;;;4956496;28;20177;-69
2024/01/19 06:31:05;;;;;;;24.05;14.10;;;-0.30;19.10;;;;;;4956393;28;20727;-68
2024/01/19 06:33:31;;;;;;;25.30;14.68;;;-0.40;19.20;;;;;;4956432;28;20260;-69
2024/01/19 06:35:56;;;;;;;24.00;14.70;;;-0.30;19.40;;;;;;4956433;28;20288;-69
2024/01/19 06:38:23;;;;;;;23.53;12.80;;;-0.20;18.90;;;;;;4956493;28;20253;-69
2024/01/19 06:40:49;;;;;;;20.23;14.38;;;-0.20;17.00;;;;;;4956133;28;20222;-68
2024/01/19 06:43:15;;;;;;;20.33;15.30;;;-0.20;16.80;;;;;;4955418;28;20174;-67
2024/01/19 06:45:40;;;;;;;24.10;15.10;;;-0.30;17.00;;;;;;4956180;28;20181;-68
2024/01/19 06:48:06;;;;;;;16.43;11.60;;;-0.20;16.90;;;;;;4956181;28;20497;-68
2024/01/19 06:50:32;;;;;;;19.73;12.53;;;-0.20;16.80;;;;;;4954539;28;20240;-68
2024/01/19 06:52:59;;;;;;;19.20;10.70;;;-0.20;16.80;;;;;;4954692;28;20426;-69
2024/01/19 06:55:26;;;;;;;16.08;11.07;;;-0.30;16.80;;;;;;4954270;28;20210;-69
2024/01/19 06:57:51;;;;;;;16.80;11.65;;;-0.40;16.70;;;;;;4956042;28;20182;-68
2024/01/19 07:00:18;;;;;;;19.90;13.10;;;-0.40;17.70;;;;;;4956524;28;20232;-69
2024/01/19 07:02:44;;;;;;;20.60;11.68;;;-0.30;17.80;;;;;;4956018;28;20670;-69
2024/01/19 07:05:10;;;;;;;17.63;12.18;;;-0.20;17.80;;;;;;4955771;28;20218;-68
2024/01/19 07:07:36;;;;;;;21.48;13.20;;;-0.10;16.90;;;;;;4955455;28;20217;-68
2024/01/19 07:10:02;;;;;;;20.20;12.00;;;-0.20;16.80;;;;;;4955568;28;20174;-67
2024/01/19 07:12:28;;;;;;;16.60;12.77;;;-0.20;18.00;;;;;;4955094;28;20577;-68
2024/01/19 07:14:53;;;;;;;18.80;10.80;;;-0.10;17.70;;;;;;4955223;28;20178;-68
2024/01/19 07:17:19;;;;;;;27.43;13.00;;;-0.10;16.20;;;;;;4955154;28;20178;-68
2024/01/19 07:19:44;;;;;;;15.30;10.40;;;-0.10;15.80;;;;;;4955009;28;20189;-67
2024/01/19 07:22:10;;;;;;;17.70;11.53;;;-0.20;15.00;;;;;;4955146;28;20281;-68
2024/01/19 07:24:35;;;;;;;18.07;10.20;;;-0.30;15.90;;;;;;4955054;28;20178;-68
2024/01/19 07:27:03;;;;;;;15.43;11.10;;;-0.20;16.90;;;;;;4954868;28;20245;-68
2024/01/19 07:29:30;;;;;;;16.38;11.80;;;-0.20;16.80;;;;;;4954748;28;20185;-68
2024/01/19 07:31:56;;;;;;;17.00;12.25;;;-0.20;16.50;;;;;;4954772;28;20189;-68
2024/01/19 07:34:21;;;;;;;15.60;11.77;;;-0.20;16.80;;;;;;4954257;28;20696;-68
2024/01/19 07:36:47;;;;;;;14.83;12.37;;;-0.10;16.90;;;;;;4954709;28;20540;-68
2024/01/19 07:39:12;;;;;;;18.27;12.20;;;-0.10;16.90;;;;;;4954628;28;20189;-68
2024/01/19 07:41:38;;;;;;;18.37;12.20;;;-0.10;16.50;;;;;;4954721;28;20697;-69
2024/01/19 07:44:03;;;;;;;20.03;12.37;;;-0.10;16.60;;;;;;4954559;28;20654;-68
2024/01/19 07:46:29;;;;;;;14.07;11.57;;;-0.10;16.90;;;;;;4955156;28;20318;-68
2024/01/19 07:48:55;;;;;;;16.07;11.50;;;-0.10;16.90;;;;;;4954499;28;20618;-68
2024/01/19 07:51:21;;;;;;;21.20;12.33;;;-0.10;14.80;;;;;;4954627;28;20201;-68
2024/01/19 07:53:47;;;;;;;15.60;9.95;;;-0.20;14.90;;;;;;4954520;29;20189;-69
2024/01/19 07:56:12;;;;;;;17.83;13.30;;;0.00;15.40;;;;;;4954739;29;20170;-69
2024/01/19 07:58:38;;;;;;;18.20;11.20;;;0.00;14.20;;;;;;4954766;28;20180;-69
2024/01/19 08:01:04;;;;;;;16.75;11.10;;;0.20;13.70;;;;;;4954181;28;20214;-69
2024/01/19 08:03:30;;;;;;;15.98;11.20;;;0.30;13.80;;;;;;4954486;28;20178;-68
2024/01/19 08:05:56;;;;;;;16.70;11.10;;;0.30;12.90;;;;;;4954714;28;20603;-69
2024/01/19 08:08:21;;;;;;;16.40;11.37;;;0.40;12.40;;;;;;4954466;28;20574;-68
2024/01/19 08:10:47;;;;;;;19.50;11.77;;;0.40;13.00;;;;;;4954581;28;20305;-68
2024/01/19 08:13:14;;;;;;;15.10;11.10;;;0.60;12.70;;;;;;4954096;28;20571;-68
2024/01/19 08:15:39;;;;;;;14.65;10.35;;;0.70;11.50;;;;;;4954575;28;20178;-68
2024/01/19 08:18:05;;;;;;;19.80;11.00;;;0.70;11.30;;;;;;4952795;29;20174;-68
2024/01/19 08:20:32;;;;;;;14.20;9.20;;;0.60;10.90;;;;;;4953857;28;20188;-68
2024/01/19 08:22:57;;;;;;;15.30;10.38;;;0.70;11.30;;;;;;4954397;29;20174;-68
2024/01/19 08:25:23;;;;;;;20.20;11.30;;;0.70;9.60;;;;;;4953898;28;20181;-69
2024/01/19 08:27:49;;;;;;;15.93;10.50;;;0.60;8.80;;;;;;4954003;28;20511;-69
2024/01/19 08:30:16;;;;;;;16.73;10.07;;;0.60;8.80;;;;;;4954048;28;20189;-69
2024/01/19 08:32:42;;;;;;;14.50;10.05;;;0.40;8.70;;;;;;4953954;28;20673;-69
2024/01/19 08:35:10;;;;;;;20.17;11.75;;;0.40;10.20;;;;;;4953858;28;20553;-68
2024/01/19 08:37:40;;;;;;;19.60;11.38;;;0.40;9.00;;;;;;4953987;28;20683;-68
2024/01/19 08:40:12;;;;;;;12.90;9.88;;;0.30;9.00;;;;;;4953950;28;20252;-68
2024/01/19 08:42:38;;;;;;;11.70;10.30;;;0.30;10.60;;;;;;4953857;28;20233;-68
2024/01/19 08:45:05;;;;;;;13.20;9.43;;;0.30;10.90;;;;;;4953288;28;20256;-68
2024/01/19 08:47:31;;;;;;;10.60;8.02;;;0.30;10.20;;;;;;4953628;28;20205;-68
2024/01/19 08:49:57;;;;;;;19.53;10.63;;;0.40;10.80;;;;;;4953705;28;20170;-69
2024/01/19 08:52:22;;;;;;;14.83;10.70;;;0.40;10.70;;;;;;4953838;28;20197;-69
2024/01/19 08:54:48;;;;;;;14.80;9.63;;;0.40;8.70;;;;;;4953627;28;20261;-67
2024/01/19 08:57:14;;;;;;;12.73;9.77;;;0.60;10.40;;;;;;4953722;29;20191;-68
2024/01/19 08:59:40;;;;;;;17.20;9.52;;;1.00;9.70;;;;;;4953715;28;20563;-70
2024/01/19 09:02:06;;;;;;;18.73;10.77;;;1.20;8.30;;;;;;4952128;28;20218;-68
2024/01/19 09:04:33;;;;;;;13.82;9.20;;;1.50;7.70;;;;;;4953593;28;20194;-68
2024/01/19 09:06:59;;;;;;;14.85;9.50;;;1.50;4.20;;;;;;4953315;29;20278;-68
2024/01/19 09:09:25;;;;;;;17.37;9.77;;;1.40;2.90;;;;;;4953324;29;20317;-68
2024/01/19 09:11:50;;;;;;;11.17;8.50;;;1.40;3.00;;;;;;4953349;28;20290;-68
2024/01/19 09:14:16;;;;;;;13.57;8.30;;;1.50;4.00;;;;;;4953080;29;20254;-68
2024/01/19 09:16:44;;;;;;;12.73;9.10;;;1.60;2.30;;;;;;4953660;29;20183;-68
2024/01/19 09:19:11;;;;;;;11.48;8.80;;;1.50;1.00;;;;;;4953272;28;20187;-67
2024/01/19 09:21:39;;;;;;;24.48;9.90;;;1.50;1.00;;;;;;4953257;28;20215;-68
2024/01/19 09:24:05;;;;;;;13.35;8.07;;;1.50;1.70;;;;;;4953181;29;20564;-68
2024/01/19 09:26:30;;;;;;;13.57;7.87;;;1.50;1.00;;;;;;4953315;29;20203;-68
2024/01/19 09:28:56;;;;;;;11.47;7.63;;;1.40;1.30;;;;;;4953104;28;20181;-68
2024/01/19 09:31:22;;;;;;;15.90;8.07;;;1.60;2.70;;;;;;4953024;28;20224;-68
2024/01/19 09:33:47;;;;;;;14.13;8.80;;;1.90;1.00;;;;;;4951595;29;20231;-68
2024/01/19 09:36:13;;;;;;;11.63;8.33;;;2.20;1.00;;;;;;4953368;28;20204;-70
2024/01/19 09:38:39;;;;;;;11.67;8.40;;;2.60;1.00;;;;;;4952928;29;20990;-68
2024/01/19 09:41:30;;;;;;;9.70;7.00;;;2.80;1.00;;;;;;4953061;28;20188;-68
2024/01/19 09:43:58;;;;;;;10.30;7.38;;;2.70;1.00;;;;;;4952968;29;20247;-68
2024/01/19 09:46:29;;;;;;;10.75;7.68;;;2.40;1.00;;;;;;4952918;28;20263;-68
2024/01/19 09:49:34;;;;;;;11.82;6.80;;;2.20;1.00;;;;;;4951544;29;20550;-68
2024/01/19 09:52:21;;;;;;;12.52;8.70;;;2.40;1.00;;;;;;4952863;28;20198;-68
2024/01/19 09:54:47;;;;;;;12.00;8.60;;;2.40;1.00;;;;;;4952690;28;20191;-67
2024/01/19 09:57:13;;;;;;;10.07;7.77;;;2.40;1.00;;;;;;4955564;28;20244;-69
2024/01/19 09:59:39;;;;;;;14.63;8.10;;;2.50;1.00;;;;;;4956486;29;20188;-69
2024/01/19 10:02:06;;;;;;;10.93;7.30;;;2.60;1.00;;;;;;4956354;28;20690;-69
2024/01/19 10:04:32;;;;;;;11.82;8.10;;;2.80;1.00;;;;;;4956219;29;20187;-69
2024/01/19 10:06:57;;;;;;;10.13;7.10;;;3.10;1.00;;;;;;4956432;29;20211;-68
2024/01/19 10:09:23;;;;;;;12.20;9.10;;;3.20;1.00;;;;;;4956383;29;20184;-68
2024/01/19 10:11:54;;;;;;;10.40;8.73;;;3.10;1.00;;;;;;4956257;28;20200;-68
2024/01/19 10:14:20;;;;;;;12.05;9.85;;;3.00;1.00;;;;;;4954831;28;20187;-68
2024/01/19 10:16:50;;;;;;;13.32;8.30;;;3.00;1.00;;;;;;4956182;29;20580;-69
2024/01/19 10:19:16;;;;;;;16.25;8.98;;;3.50;1.00;;;;;;4956040;29;20191;-69
2024/01/19 10:21:43;;;;;;;11.68;8.48;;;3.50;1.00;;;;;;4956137;28;20576;-68
2024/01/19 10:24:20;;;;;;;13.02;9.05;;;3.70;1.00;;;;;;4955772;28;20250;-69
2024/01/19 10:26:57;;;;;;;10.48;8.60;;;3.80;1.00;;;;;;4955960;28;20276;-68
2024/01/19 10:29:23;;;;;;;11.25;7.70;;;4.00;1.00;;;;;;4956048;29;20176;-68
2024/01/19 10:31:51;;;;;;;14.80;7.50;;;4.20;1.00;;;;;;4955770;28;20196;-68
2024/01/19 10:34:19;;;;;;;11.47;6.60;;;4.00;1.00;;;;;;4955910;28;20197;-68
2024/01/19 10:36:46;;;;;;;10.73;7.05;;;3.80;1.00;;;;;;4955773;28;20416;-68
2024/01/19 10:39:16;;;;;;;11.55;7.55;;;3.40;1.00;;;;;;4955869;29;20595;-68
2024/01/19 10:41:43;;;;;;;11.27;6.60;;;3.30;1.00;;;;;;4955934;28;20635;-69
2024/01/19 10:44:16;;;;;;;10.53;7.60;;;3.10;1.00;;;;;;4955632;29;20592;-68
2024/01/19 10:46:43;;;;;;;9.27;6.63;;;2.90;1.00;;;;;;4954496;29;20507;-69
2024/01/19 10:49:10;;;;;;;9.30;7.05;;;3.10;1.00;;;;;;4955740;28;20424;-70
2024/01/19 10:51:45;;;;;;;8.33;6.47;;;3.50;1.00;;;;;;4955660;28;20195;-69
2024/01/19 10:54:23;;;;;;;10.48;7.25;;;3.80;1.00;;;;;;4955654;28;20416;-70
2024/01/19 10:57:00;;;;;;;10.53;8.17;;;3.70;1.00;;;;;;4955899;29;20268;-69
2024/01/19 10:59:25;;;;;;;7.75;5.75;;;3.70;1.00;;;;;;4955584;29;20495;-70
2024/01/19 11:02:01;;;;;;;9.10;6.77;;;3.70;1.00;;;;;;4955579;28;20237;-70
2024/01/19 11:04:27;;;;;;;8.73;7.53;;;4.00;1.00;;;;;;4955893;28;20205;-70
2024/01/19 11:06:53;;;;;;;8.50;7.00;;;4.40;1.00;;;;;;4955217;28;20840;-69
2024/01/19 11:09:19;;;;;;;9.60;6.07;;;4.60;1.00;;;;;;4954742;28;20182;-68
2024/01/19 11:11:54;;;;;;;9.63;7.73;;;4.30;1.00;;;;;;4955311;28;20444;-68
2024/01/19 11:14:23;;;;;;;7.60;6.20;;;4.20;1.00;;;;;;4955091;29;20173;-69
2024/01/19 11:16:51;;;;;;;6.77;5.67;;;4.00;1.00;;;;;;4955224;29;20464;-70
2024/01/19 11:19:18;;;;;;;10.68;7.47;;;3.90;1.00;;;;;;4955090;28;20967;-69
2024/01/19 11:21:44;;;;;;;9.47;6.63;;;3.60;1.00;;;;;;4955056;28;20237;-69
2024/01/19 11:24:11;;;;;;;10.37;7.23;;;3.60;1.00;;;;;;4954973;29;20447;-69
2024/01/19 11:26:56;;;;;;;9.33;6.20;;;3.20;1.00;;;;;;4955194;28;20481;-71
2024/01/19 11:29:25;;;;;;;13.27;7.07;;;2.80;1.00;;;;;;4955061;29;20424;-69
2024/01/19 11:31:51;;;;;;;11.77;5.88;;;2.50;1.00;;;;;;4954697;28;20188;-69
2024/01/19 11:34:43;;;;;;;10.98;7.78;;;2.30;1.00;;;;;;4954497;28;20176;-69
2024/01/19 11:37:29;;;;;;;6.95;5.28;;;2.30;1.00;;;;;;4953596;29;20194;-69
2024/01/19 11:39:54;;;;;;;8.93;6.20;;;2.20;1.00;;;;;;4954636;29;20272;-68
2024/01/19 11:42:39;;;;;;;14.07;7.50;;;2.20;1.00;;;;;;4954754;28;20289;-68
2024/01/19 11:45:05;;;;;;;9.98;5.95;;;2.30;1.00;;;;;;4953187;29;20180;-69
2024/01/19 11:47:37;;;;;;;11.40;7.82;;;2.40;1.00;;;;;;4955139;28;20271;-69
2024/01/19 11:50:04;;;;;;;9.60;6.70;;;2.60;1.00;;;;;;4954569;29;20188;-69
2024/01/19 11:52:35;;;;;;;10.88;6.22;;;2.80;1.00;;;;;;4954562;28;20600;-68
2024/01/19 11:55:33;;;;;;;7.72;5.57;;;2.80;1.00;;;;;;4954168;29;20179;-68
2024/01/19 11:58:25;;;;;;;8.90;6.55;;;3.00;1.00;;;;;;4969160;28;20279;-68
2024/01/19 12:00:56;;;;;;;10.07;6.45;;;3.00;1.00;;;;;;4954248;28;20219;-69
2024/01/19 12:03:23;;;;;;;9.63;5.63;;;2.80;1.00;;;;;;4954219;28;20210;-69
2024/01/19 12:05:50;;;;;;;8.70;6.03;;;3.00;1.00;;;;;;4954750;28;20280;-69
2024/01/19 12:08:15;;;;;;;7.72;4.32;;;3.30;1.00;;;;;;4953984;29;20236;-67
2024/01/19 12:10:43;;;;;;;8.63;6.83;;;3.50;1.00;;;;;;4954345;28;20654;-69
2024/01/19 12:13:08;;;;;;;6.60;5.38;;;3.50;1.00;;;;;;4954223;28;20181;-69
2024/01/19 12:15:34;;;;;;;6.87;5.13;;;3.80;1.00;;;;;;4953983;29;20177;-69
2024/01/19 12:18:03;;;;;;;6.43;5.00;;;3.70;1.00;;;;;;4953664;28;20684;-69
2024/01/19 12:20:29;;;;;;;5.60;4.67;;;3.70;1.00;;;;;;4953129;28;20424;-73
2024/01/19 12:22:57;;;;;;;10.80;4.70;;;3.70;1.00;;;;;;4953758;29;20483;-69
2024/01/19 12:25:24;;;;;;;6.93;5.78;;;3.40;1.00;;;;;;4954025;29;20231;-72
2024/01/19 12:28:09;;;;;;;6.95;6.18;;;3.40;1.00;;;;;;4953894;29;20212;-72
2024/01/19 12:30:36;;;;;;;7.83;4.93;;;3.70;1.00;;;;;;4952484;28;20169;-70
2024/01/19 12:33:15;;;;;;;6.60;5.90;;;3.50;1.00;;;;;;4953862;28;20797;-69
2024/01/19 12:35:41;;;;;;;7.77;6.80;;;3.50;1.00;;;;;;4953729;29;20425;-70
2024/01/19 12:38:07;;;;;;;7.57;5.47;;;3.70;1.00;;;;;;4953797;28;20472;-69